sensor_id;sensor_type;location;lat;lon;timestamp;P1;durP1;ratioP1;P2;durP2;ratioP2
69998;SDS011;57339;52.156;5.372;2023-11-18T00:00:10;102.30;;;31.55;;
69998;SDS011;57339;52.156;5.372;2023-11-18T00:02:38;101.55;;;30.75;;
69998;SDS011;57339;52.156;5.372;2023-11-18T00:05:05;106.55;;;31.50;;
69998;SDS011;57339;52.156;5.372;2023-11-18T00:07:33;102.25;;;33.08;;
69998;SDS011;57339;52.156;5.372;2023-11-18T00:10:00;116.30;;;34.87;;
69998;SDS011;57339;52.156;5.372;2023-11-18T00:12:26;113.18;;;33.10;;
69998;SDS011;57339;52.156;5.372;2023-11-18T00:14:53;101.10;;;32.83;;
69998;SDS011;57339;52.156;5.372;2023-11-18T00:17:20;107.63;;;33.60;;
69998;SDS011;57339;52.156;5.372;2023-11-18T00:19:47;110.97;;;35.53;;
69998;SDS011;57339;52.156;5.372;2023-11-18T00:22:14;118.80;;;35.33;;
69998;SDS011;57339;52.156;5.372;2023-11-18T00:24:41;118.57;;;34.75;;
69998;SDS011;57339;52.156;5.372;2023-11-18T00:27:09;115.45;;;35.03;;
69998;SDS011;57339;52.156;5.372;2023-11-18T00:29:36;116.28;;;35.40;;
69998;SDS011;57339;52.156;5.372;2023-11-18T00:32:03;122.60;;;34.63;;
69998;SDS011;57339;52.156;5.372;2023-11-18T00:34:30;124.87;;;34.80;;
69998;SDS011;57339;52.156;5.372;2023-11-18T00:36:57;107.95;;;32.38;;
69998;SDS011;57339;52.156;5.372;2023-11-18T00:39:24;119.40;;;34.78;;
69998;SDS011;57339;52.156;5.372;2023-11-18T00:41:52;127.72;;;35.28;;
69998;SDS011;57339;52.156;5.372;2023-11-18T00:44:19;115.47;;;33.72;;
69998;SDS011;57339;52.156;5.372;2023-11-18T00:46:46;129.47;;;35.23;;
69998;SDS011;57339;52.156;5.372;2023-11-18T00:49:13;132.52;;;35.53;;
69998;SDS011;57339;52.156;5.372;2023-11-18T00:51:40;125.25;;;35.30;;
69998;SDS011;57339;52.156;5.372;2023-11-18T00:54:07;127.97;;;36.60;;
69998;SDS011;57339;52.156;5.372;2023-11-18T00:56:34;133.40;;;36.58;;
69998;SDS011;57339;52.156;5.372;2023-11-18T00:59:01;129.03;;;35.73;;
69998;SDS011;57339;52.156;5.372;2023-11-18T01:01:28;131.45;;;36.55;;
69998;SDS011;57339;52.156;5.372;2023-11-18T01:03:55;127.95;;;35.45;;
69998;SDS011;57339;52.156;5.372;2023-11-18T01:06:22;125.97;;;36.30;;
69998;SDS011;57339;52.156;5.372;2023-11-18T01:08:49;103.82;;;33.13;;
69998;SDS011;57339;52.156;5.372;2023-11-18T01:11:16;111.00;;;33.43;;
69998;SDS011;57339;52.156;5.372;2023-11-18T01:13:44;112.32;;;36.50;;
69998;SDS011;57339;52.156;5.372;2023-11-18T01:16:15;114.28;;;35.60;;
69998;SDS011;57339;52.156;5.372;2023-11-18T01:18:42;101.93;;;32.75;;
69998;SDS011;57339;52.156;5.372;2023-11-18T01:21:10;110.38;;;35.50;;
69998;SDS011;57339;52.156;5.372;2023-11-18T01:23:37;109.00;;;33.20;;
69998;SDS011;57339;52.156;5.372;2023-11-18T01:26:05;104.07;;;33.28;;
69998;SDS011;57339;52.156;5.372;2023-11-18T01:28:32;102.43;;;33.80;;
69998;SDS011;57339;52.156;5.372;2023-11-18T01:31:00;105.20;;;33.20;;
69998;SDS011;57339;52.156;5.372;2023-11-18T01:33:27;100.43;;;31.48;;
69998;SDS011;57339;52.156;5.372;2023-11-18T01:35:54;93.80;;;31.20;;
69998;SDS011;57339;52.156;5.372;2023-11-18T01:38:21;98.75;;;32.20;;
69998;SDS011;57339;52.156;5.372;2023-11-18T01:40:47;97.13;;;31.58;;
69998;SDS011;57339;52.156;5.372;2023-11-18T01:43:14;96.80;;;33.38;;
69998;SDS011;57339;52.156;5.372;2023-11-18T01:45:41;107.03;;;33.03;;
69998;SDS011;57339;52.156;5.372;2023-11-18T01:48:09;95.27;;;32.20;;
69998;SDS011;57339;52.156;5.372;2023-11-18T01:50:39;101.93;;;33.67;;
69998;SDS011;57339;52.156;5.372;2023-11-18T01:53:09;98.30;;;33.33;;
69998;SDS011;57339;52.156;5.372;2023-11-18T01:55:37;105.68;;;33.03;;
69998;SDS011;57339;52.156;5.372;2023-11-18T01:58:04;98.15;;;33.85;;
69998;SDS011;57339;52.156;5.372;2023-11-18T02:00:31;101.50;;;32.23;;
69998;SDS011;57339;52.156;5.372;2023-11-18T02:02:58;120.78;;;34.75;;
69998;SDS011;57339;52.156;5.372;2023-11-18T02:05:25;116.60;;;34.63;;
69998;SDS011;57339;52.156;5.372;2023-11-18T02:07:52;112.30;;;33.75;;
69998;SDS011;57339;52.156;5.372;2023-11-18T02:10:19;124.88;;;33.05;;
69998;SDS011;57339;52.156;5.372;2023-11-18T02:15:23;113.55;;;33.65;;
69998;SDS011;57339;52.156;5.372;2023-11-18T02:17:51;123.10;;;34.50;;
69998;SDS011;57339;52.156;5.372;2023-11-18T02:20:19;124.38;;;36.33;;
69998;SDS011;57339;52.156;5.372;2023-11-18T02:22:47;112.60;;;34.70;;
69998;SDS011;57339;52.156;5.372;2023-11-18T02:25:15;108.80;;;34.57;;
69998;SDS011;57339;52.156;5.372;2023-11-18T02:27:43;122.80;;;36.75;;
69998;SDS011;57339;52.156;5.372;2023-11-18T02:30:11;119.18;;;35.33;;
69998;SDS011;57339;52.156;5.372;2023-11-18T02:32:42;106.03;;;35.45;;
69998;SDS011;57339;52.156;5.372;2023-11-18T02:35:36;117.63;;;35.80;;
69998;SDS011;57339;52.156;5.372;2023-11-18T02:38:10;109.97;;;33.87;;
69998;SDS011;57339;52.156;5.372;2023-11-18T02:40:39;117.88;;;35.45;;
69998;SDS011;57339;52.156;5.372;2023-11-18T02:43:07;115.53;;;37.00;;
69998;SDS011;57339;52.156;5.372;2023-11-18T02:45:36;113.60;;;35.30;;
69998;SDS011;57339;52.156;5.372;2023-11-18T02:48:04;108.07;;;36.03;;
69998;SDS011;57339;52.156;5.372;2023-11-18T02:50:32;108.93;;;35.47;;
69998;SDS011;57339;52.156;5.372;2023-11-18T02:52:59;110.07;;;36.67;;
69998;SDS011;57339;52.156;5.372;2023-11-18T02:55:26;116.55;;;36.97;;
69998;SDS011;57339;52.156;5.372;2023-11-18T02:57:53;101.78;;;34.92;;
69998;SDS011;57339;52.156;5.372;2023-11-18T03:00:20;111.75;;;35.60;;
69998;SDS011;57339;52.156;5.372;2023-11-18T03:02:47;111.20;;;35.57;;
69998;SDS011;57339;52.156;5.372;2023-11-18T03:05:15;108.65;;;36.47;;
69998;SDS011;57339;52.156;5.372;2023-11-18T03:07:42;109.82;;;37.25;;
69998;SDS011;57339;52.156;5.372;2023-11-18T03:10:10;106.82;;;34.97;;
69998;SDS011;57339;52.156;5.372;2023-11-18T03:12:37;112.88;;;36.03;;
69998;SDS011;57339;52.156;5.372;2023-11-18T03:15:07;112.07;;;37.23;;
69998;SDS011;57339;52.156;5.372;2023-11-18T03:17:35;116.75;;;37.28;;
69998;SDS011;57339;52.156;5.372;2023-11-18T03:20:02;114.40;;;37.53;;
69998;SDS011;57339;52.156;5.372;2023-11-18T03:22:29;103.13;;;35.83;;
69998;SDS011;57339;52.156;5.372;2023-11-18T03:24:56;105.75;;;36.58;;
69998;SDS011;57339;52.156;5.372;2023-11-18T03:27:23;108.40;;;35.70;;
69998;SDS011;57339;52.156;5.372;2023-11-18T03:29:49;109.50;;;36.83;;
69998;SDS011;57339;52.156;5.372;2023-11-18T03:32:19;108.53;;;38.80;;
69998;SDS011;57339;52.156;5.372;2023-11-18T03:34:46;122.43;;;38.45;;
69998;SDS011;57339;52.156;5.372;2023-11-18T03:37:12;118.43;;;37.15;;
69998;SDS011;57339;52.156;5.372;2023-11-18T03:39:40;118.03;;;37.27;;
69998;SDS011;57339;52.156;5.372;2023-11-18T03:42:07;116.28;;;38.92;;
69998;SDS011;57339;52.156;5.372;2023-11-18T03:44:33;115.95;;;37.60;;
69998;SDS011;57339;52.156;5.372;2023-11-18T03:47:00;110.07;;;36.88;;
69998;SDS011;57339;52.156;5.372;2023-11-18T03:49:27;114.38;;;36.75;;
69998;SDS011;57339;52.156;5.372;2023-11-18T03:51:54;110.47;;;36.33;;
69998;SDS011;57339;52.156;5.372;2023-11-18T03:54:21;106.50;;;35.83;;
69998;SDS011;57339;52.156;5.372;2023-11-18T03:56:48;122.82;;;39.08;;
69998;SDS011;57339;52.156;5.372;2023-11-18T03:59:15;114.82;;;37.63;;
69998;SDS011;57339;52.156;5.372;2023-11-18T04:01:42;115.43;;;38.65;;
69998;SDS011;57339;52.156;5.372;2023-11-18T04:04:09;118.37;;;36.73;;
69998;SDS011;57339;52.156;5.372;2023-11-18T04:06:36;122.93;;;37.83;;
69998;SDS011;57339;52.156;5.372;2023-11-18T04:09:02;109.40;;;35.13;;
69998;SDS011;57339;52.156;5.372;2023-11-18T04:11:29;118.05;;;38.40;;
69998;SDS011;57339;52.156;5.372;2023-11-18T04:13:56;118.75;;;38.97;;
69998;SDS011;57339;52.156;5.372;2023-11-18T04:16:23;127.57;;;38.13;;
69998;SDS011;57339;52.156;5.372;2023-11-18T04:18:50;115.40;;;37.47;;
69998;SDS011;57339;52.156;5.372;2023-11-18T04:21:17;119.85;;;38.15;;
69998;SDS011;57339;52.156;5.372;2023-11-18T04:23:44;121.68;;;37.95;;
69998;SDS011;57339;52.156;5.372;2023-11-18T04:26:10;115.95;;;38.30;;
69998;SDS011;57339;52.156;5.372;2023-11-18T04:28:37;111.77;;;36.97;;
69998;SDS011;57339;52.156;5.372;2023-11-18T04:31:05;117.70;;;36.30;;
69998;SDS011;57339;52.156;5.372;2023-11-18T04:33:32;123.82;;;38.08;;
69998;SDS011;57339;52.156;5.372;2023-11-18T04:35:59;120.65;;;37.85;;
69998;SDS011;57339;52.156;5.372;2023-11-18T04:38:26;117.40;;;36.70;;
69998;SDS011;57339;52.156;5.372;2023-11-18T04:40:53;119.27;;;38.13;;
69998;SDS011;57339;52.156;5.372;2023-11-18T04:43:20;107.47;;;37.40;;
69998;SDS011;57339;52.156;5.372;2023-11-18T04:46:04;112.22;;;37.53;;
69998;SDS011;57339;52.156;5.372;2023-11-18T04:48:32;116.97;;;37.50;;
69998;SDS011;57339;52.156;5.372;2023-11-18T04:50:59;123.65;;;37.78;;
69998;SDS011;57339;52.156;5.372;2023-11-18T04:53:26;119.13;;;36.80;;
69998;SDS011;57339;52.156;5.372;2023-11-18T04:55:53;109.68;;;35.95;;
69998;SDS011;57339;52.156;5.372;2023-11-18T04:58:20;109.60;;;35.50;;
69998;SDS011;57339;52.156;5.372;2023-11-18T05:00:47;112.15;;;36.80;;
69998;SDS011;57339;52.156;5.372;2023-11-18T05:03:15;115.38;;;38.28;;
69998;SDS011;57339;52.156;5.372;2023-11-18T05:05:42;109.40;;;36.70;;
69998;SDS011;57339;52.156;5.372;2023-11-18T05:08:20;109.57;;;35.88;;
69998;SDS011;57339;52.156;5.372;2023-11-18T05:10:48;104.80;;;36.83;;
69998;SDS011;57339;52.156;5.372;2023-11-18T05:13:17;115.53;;;37.20;;
69998;SDS011;57339;52.156;5.372;2023-11-18T05:15:44;102.55;;;35.10;;
69998;SDS011;57339;52.156;5.372;2023-11-18T05:18:12;98.17;;;35.80;;
69998;SDS011;57339;52.156;5.372;2023-11-18T05:20:43;102.97;;;36.28;;
69998;SDS011;57339;52.156;5.372;2023-11-18T05:23:11;102.78;;;36.75;;
69998;SDS011;57339;52.156;5.372;2023-11-18T05:25:42;98.55;;;35.42;;
69998;SDS011;57339;52.156;5.372;2023-11-18T05:28:10;102.25;;;35.10;;
69998;SDS011;57339;52.156;5.372;2023-11-18T05:30:38;95.37;;;35.23;;
69998;SDS011;57339;52.156;5.372;2023-11-18T05:33:08;94.32;;;35.30;;
69998;SDS011;57339;52.156;5.372;2023-11-18T05:35:35;104.93;;;37.38;;
69998;SDS011;57339;52.156;5.372;2023-11-18T05:38:02;97.32;;;35.40;;
69998;SDS011;57339;52.156;5.372;2023-11-18T05:40:28;94.82;;;35.05;;
69998;SDS011;57339;52.156;5.372;2023-11-18T05:42:55;95.80;;;34.77;;
69998;SDS011;57339;52.156;5.372;2023-11-18T05:45:22;91.95;;;34.58;;
69998;SDS011;57339;52.156;5.372;2023-11-18T05:47:49;89.13;;;34.35;;
69998;SDS011;57339;52.156;5.372;2023-11-18T05:50:16;91.55;;;34.17;;
69998;SDS011;57339;52.156;5.372;2023-11-18T05:52:43;93.60;;;33.83;;
69998;SDS011;57339;52.156;5.372;2023-11-18T05:55:10;90.17;;;33.30;;
69998;SDS011;57339;52.156;5.372;2023-11-18T05:57:37;85.18;;;32.53;;
69998;SDS011;57339;52.156;5.372;2023-11-18T06:00:04;89.07;;;34.22;;
69998;SDS011;57339;52.156;5.372;2023-11-18T06:02:31;87.47;;;32.28;;
69998;SDS011;57339;52.156;5.372;2023-11-18T06:04:58;79.20;;;30.98;;
69998;SDS011;57339;52.156;5.372;2023-11-18T06:07:25;90.03;;;31.17;;
69998;SDS011;57339;52.156;5.372;2023-11-18T06:09:52;80.13;;;32.22;;
69998;SDS011;57339;52.156;5.372;2023-11-18T06:12:19;78.22;;;32.00;;
69998;SDS011;57339;52.156;5.372;2023-11-18T06:14:46;85.45;;;32.03;;
69998;SDS011;57339;52.156;5.372;2023-11-18T06:17:13;77.30;;;29.55;;
69998;SDS011;57339;52.156;5.372;2023-11-18T06:19:40;83.77;;;30.83;;
69998;SDS011;57339;52.156;5.372;2023-11-18T06:22:07;78.45;;;30.13;;
69998;SDS011;57339;52.156;5.372;2023-11-18T06:24:34;79.22;;;29.92;;
69998;SDS011;57339;52.156;5.372;2023-11-18T06:27:01;77.00;;;28.42;;
69998;SDS011;57339;52.156;5.372;2023-11-18T06:29:28;73.95;;;28.83;;
69998;SDS011;57339;52.156;5.372;2023-11-18T06:31:55;77.53;;;28.83;;
69998;SDS011;57339;52.156;5.372;2023-11-18T06:34:22;72.38;;;27.85;;
69998;SDS011;57339;52.156;5.372;2023-11-18T06:36:49;70.05;;;27.88;;
69998;SDS011;57339;52.156;5.372;2023-11-18T06:39:16;71.63;;;28.05;;
69998;SDS011;57339;52.156;5.372;2023-11-18T06:41:42;67.63;;;27.33;;
69998;SDS011;57339;52.156;5.372;2023-11-18T06:44:10;70.07;;;27.07;;
69998;SDS011;57339;52.156;5.372;2023-11-18T06:46:37;57.92;;;25.80;;
69998;SDS011;57339;52.156;5.372;2023-11-18T06:49:04;64.60;;;26.73;;
69998;SDS011;57339;52.156;5.372;2023-11-18T06:51:32;65.95;;;26.10;;
69998;SDS011;57339;52.156;5.372;2023-11-18T06:54:00;66.25;;;25.77;;
69998;SDS011;57339;52.156;5.372;2023-11-18T06:56:28;65.00;;;25.53;;
69998;SDS011;57339;52.156;5.372;2023-11-18T06:58:54;62.45;;;25.02;;
69998;SDS011;57339;52.156;5.372;2023-11-18T07:01:22;58.78;;;23.90;;
69998;SDS011;57339;52.156;5.372;2023-11-18T07:03:49;62.70;;;24.50;;
69998;SDS011;57339;52.156;5.372;2023-11-18T07:06:19;62.13;;;23.73;;
69998;SDS011;57339;52.156;5.372;2023-11-18T07:08:46;60.60;;;23.97;;
69998;SDS011;57339;52.156;5.372;2023-11-18T07:11:13;57.75;;;22.90;;
69998;SDS011;57339;52.156;5.372;2023-11-18T07:13:41;57.28;;;23.48;;
69998;SDS011;57339;52.156;5.372;2023-11-18T07:16:09;62.67;;;23.23;;
69998;SDS011;57339;52.156;5.372;2023-11-18T07:18:37;53.15;;;22.95;;
69998;SDS011;57339;52.156;5.372;2023-11-18T07:21:04;53.43;;;21.93;;
69998;SDS011;57339;52.156;5.372;2023-11-18T07:23:31;56.83;;;23.42;;
69998;SDS011;57339;52.156;5.372;2023-11-18T07:25:59;52.85;;;22.58;;
69998;SDS011;57339;52.156;5.372;2023-11-18T07:28:26;59.13;;;22.40;;
69998;SDS011;57339;52.156;5.372;2023-11-18T07:30:53;51.53;;;21.70;;
69998;SDS011;57339;52.156;5.372;2023-11-18T07:33:21;51.67;;;21.87;;
69998;SDS011;57339;52.156;5.372;2023-11-18T07:35:49;53.65;;;22.23;;
69998;SDS011;57339;52.156;5.372;2023-11-18T07:38:16;53.67;;;22.00;;
69998;SDS011;57339;52.156;5.372;2023-11-18T07:40:43;52.50;;;20.42;;
69998;SDS011;57339;52.156;5.372;2023-11-18T07:43:14;52.70;;;22.27;;
69998;SDS011;57339;52.156;5.372;2023-11-18T07:45:41;53.10;;;22.93;;
69998;SDS011;57339;52.156;5.372;2023-11-18T07:48:10;49.03;;;20.33;;
69998;SDS011;57339;52.156;5.372;2023-11-18T07:50:39;52.25;;;21.92;;
69998;SDS011;57339;52.156;5.372;2023-11-18T07:53:07;51.90;;;20.80;;
69998;SDS011;57339;52.156;5.372;2023-11-18T07:55:34;48.55;;;21.80;;
69998;SDS011;57339;52.156;5.372;2023-11-18T07:58:01;51.13;;;21.67;;
69998;SDS011;57339;52.156;5.372;2023-11-18T08:00:28;53.35;;;21.15;;
69998;SDS011;57339;52.156;5.372;2023-11-18T08:02:55;50.15;;;21.95;;
69998;SDS011;57339;52.156;5.372;2023-11-18T08:05:23;49.38;;;21.58;;
69998;SDS011;57339;52.156;5.372;2023-11-18T08:07:50;51.58;;;20.73;;
69998;SDS011;57339;52.156;5.372;2023-11-18T08:10:18;46.77;;;20.40;;
69998;SDS011;57339;52.156;5.372;2023-11-18T08:12:46;55.67;;;21.00;;
69998;SDS011;57339;52.156;5.372;2023-11-18T08:15:16;46.80;;;21.13;;
69998;SDS011;57339;52.156;5.372;2023-11-18T08:17:44;49.63;;;21.45;;
69998;SDS011;57339;52.156;5.372;2023-11-18T08:20:11;53.63;;;21.13;;
69998;SDS011;57339;52.156;5.372;2023-11-18T08:22:40;51.13;;;21.80;;
69998;SDS011;57339;52.156;5.372;2023-11-18T08:25:08;46.10;;;20.40;;
69998;SDS011;57339;52.156;5.372;2023-11-18T08:27:35;48.22;;;19.67;;
69998;SDS011;57339;52.156;5.372;2023-11-18T08:30:02;46.08;;;20.15;;
69998;SDS011;57339;52.156;5.372;2023-11-18T08:32:29;49.92;;;20.70;;
69998;SDS011;57339;52.156;5.372;2023-11-18T08:34:56;46.70;;;19.67;;
69998;SDS011;57339;52.156;5.372;2023-11-18T08:37:26;41.60;;;18.98;;
69998;SDS011;57339;52.156;5.372;2023-11-18T08:39:53;46.10;;;20.15;;
69998;SDS011;57339;52.156;5.372;2023-11-18T08:42:20;39.88;;;18.27;;
69998;SDS011;57339;52.156;5.372;2023-11-18T08:44:46;38.25;;;18.10;;
69998;SDS011;57339;52.156;5.372;2023-11-18T08:47:14;39.67;;;18.60;;
69998;SDS011;57339;52.156;5.372;2023-11-18T08:49:42;37.67;;;19.10;;
69998;SDS011;57339;52.156;5.372;2023-11-18T08:52:09;39.60;;;18.80;;
69998;SDS011;57339;52.156;5.372;2023-11-18T08:54:36;38.45;;;18.13;;
69998;SDS011;57339;52.156;5.372;2023-11-18T08:57:04;34.80;;;15.98;;
69998;SDS011;57339;52.156;5.372;2023-11-18T08:59:31;35.50;;;17.90;;
69998;SDS011;57339;52.156;5.372;2023-11-18T09:01:58;40.45;;;17.38;;
69998;SDS011;57339;52.156;5.372;2023-11-18T09:04:25;37.28;;;17.98;;
69998;SDS011;57339;52.156;5.372;2023-11-18T09:06:52;38.30;;;16.90;;
69998;SDS011;57339;52.156;5.372;2023-11-18T09:09:20;32.88;;;16.85;;
69998;SDS011;57339;52.156;5.372;2023-11-18T09:11:47;38.00;;;16.47;;
69998;SDS011;57339;52.156;5.372;2023-11-18T09:14:14;35.95;;;16.60;;
69998;SDS011;57339;52.156;5.372;2023-11-18T09:16:41;30.67;;;15.05;;
69998;SDS011;57339;52.156;5.372;2023-11-18T09:19:09;30.80;;;14.95;;
69998;SDS011;57339;52.156;5.372;2023-11-18T09:21:36;32.85;;;14.88;;
69998;SDS011;57339;52.156;5.372;2023-11-18T09:24:03;28.23;;;14.03;;
69998;SDS011;57339;52.156;5.372;2023-11-18T09:26:31;28.92;;;14.45;;
69998;SDS011;57339;52.156;5.372;2023-11-18T09:28:58;30.65;;;14.73;;
69998;SDS011;57339;52.156;5.372;2023-11-18T09:31:25;26.52;;;13.32;;
69998;SDS011;57339;52.156;5.372;2023-11-18T09:33:52;33.85;;;14.27;;
69998;SDS011;57339;52.156;5.372;2023-11-18T09:36:19;29.27;;;13.83;;
69998;SDS011;57339;52.156;5.372;2023-11-18T09:38:47;31.67;;;13.75;;
69998;SDS011;57339;52.156;5.372;2023-11-18T09:41:15;29.73;;;14.07;;
69998;SDS011;57339;52.156;5.372;2023-11-18T09:43:43;30.75;;;13.57;;
69998;SDS011;57339;52.156;5.372;2023-11-18T09:48:47;29.30;;;13.70;;
69998;SDS011;57339;52.156;5.372;2023-11-18T09:51:15;31.65;;;13.27;;
69998;SDS011;57339;52.156;5.372;2023-11-18T09:53:53;33.33;;;14.05;;
69998;SDS011;57339;52.156;5.372;2023-11-18T09:56:41;31.50;;;13.15;;
69998;SDS011;57339;52.156;5.372;2023-11-18T09:59:18;31.92;;;13.90;;
69998;SDS011;57339;52.156;5.372;2023-11-18T10:01:53;32.67;;;13.03;;
69998;SDS011;57339;52.156;5.372;2023-11-18T10:04:26;30.35;;;13.88;;
69998;SDS011;57339;52.156;5.372;2023-11-18T10:06:54;30.98;;;13.75;;
69998;SDS011;57339;52.156;5.372;2023-11-18T10:09:21;33.10;;;14.55;;
69998;SDS011;57339;52.156;5.372;2023-11-18T10:11:55;32.67;;;13.52;;
69998;SDS011;57339;52.156;5.372;2023-11-18T10:14:22;33.57;;;12.87;;
69998;SDS011;57339;52.156;5.372;2023-11-18T10:16:49;30.73;;;13.80;;
69998;SDS011;57339;52.156;5.372;2023-11-18T10:19:16;34.22;;;13.52;;
69998;SDS011;57339;52.156;5.372;2023-11-18T10:21:46;32.25;;;13.75;;
69998;SDS011;57339;52.156;5.372;2023-11-18T10:24:14;31.48;;;13.82;;
69998;SDS011;57339;52.156;5.372;2023-11-18T10:26:42;30.63;;;12.90;;
69998;SDS011;57339;52.156;5.372;2023-11-18T10:29:13;32.25;;;13.23;;
69998;SDS011;57339;52.156;5.372;2023-11-18T10:31:41;33.80;;;13.88;;
69998;SDS011;57339;52.156;5.372;2023-11-18T10:34:12;31.25;;;12.98;;
69998;SDS011;57339;52.156;5.372;2023-11-18T10:36:40;29.80;;;12.77;;
69998;SDS011;57339;52.156;5.372;2023-11-18T10:39:10;29.80;;;13.07;;
69998;SDS011;57339;52.156;5.372;2023-11-18T10:41:39;28.08;;;12.45;;
69998;SDS011;57339;52.156;5.372;2023-11-18T10:44:07;28.98;;;13.98;;
69998;SDS011;57339;52.156;5.372;2023-11-18T10:46:35;31.88;;;13.15;;
69998;SDS011;57339;52.156;5.372;2023-11-18T10:49:02;33.92;;;14.43;;
69998;SDS011;57339;52.156;5.372;2023-11-18T10:51:29;31.33;;;13.90;;
69998;SDS011;57339;52.156;5.372;2023-11-18T10:53:56;27.90;;;12.63;;
69998;SDS011;57339;52.156;5.372;2023-11-18T10:56:27;31.45;;;13.10;;
69998;SDS011;57339;52.156;5.372;2023-11-18T10:59:06;27.75;;;12.30;;
69998;SDS011;57339;52.156;5.372;2023-11-18T11:01:35;31.98;;;12.82;;
69998;SDS011;57339;52.156;5.372;2023-11-18T11:04:05;32.00;;;12.93;;
69998;SDS011;57339;52.156;5.372;2023-11-18T11:06:32;31.17;;;12.35;;
69998;SDS011;57339;52.156;5.372;2023-11-18T11:09:00;31.08;;;12.50;;
69998;SDS011;57339;52.156;5.372;2023-11-18T11:11:28;32.67;;;12.88;;
69998;SDS011;57339;52.156;5.372;2023-11-18T11:14:05;29.52;;;13.00;;
69998;SDS011;57339;52.156;5.372;2023-11-18T11:16:39;27.80;;;13.00;;
69998;SDS011;57339;52.156;5.372;2023-11-18T11:19:08;29.25;;;12.80;;
69998;SDS011;57339;52.156;5.372;2023-11-18T11:21:43;29.95;;;12.38;;
69998;SDS011;57339;52.156;5.372;2023-11-18T11:24:20;28.65;;;12.50;;
69998;SDS011;57339;52.156;5.372;2023-11-18T11:27:00;36.45;;;13.18;;
69998;SDS011;57339;52.156;5.372;2023-11-18T11:29:42;30.57;;;12.03;;
69998;SDS011;57339;52.156;5.372;2023-11-18T11:32:55;26.67;;;12.48;;
69998;SDS011;57339;52.156;5.372;2023-11-18T11:35:27;29.45;;;12.45;;
69998;SDS011;57339;52.156;5.372;2023-11-18T11:37:59;20.38;;;9.93;;
69998;SDS011;57339;52.156;5.372;2023-11-18T11:40:27;26.35;;;11.60;;
69998;SDS011;57339;52.156;5.372;2023-11-18T11:42:54;25.90;;;11.87;;
69998;SDS011;57339;52.156;5.372;2023-11-18T11:45:23;30.70;;;11.85;;
69998;SDS011;57339;52.156;5.372;2023-11-18T11:47:50;27.42;;;11.65;;
69998;SDS011;57339;52.156;5.372;2023-11-18T11:50:21;24.70;;;10.90;;
69998;SDS011;57339;52.156;5.372;2023-11-18T11:53:04;27.80;;;11.80;;
69998;SDS011;57339;52.156;5.372;2023-11-18T11:55:46;25.53;;;10.60;;
69998;SDS011;57339;52.156;5.372;2023-11-18T11:58:32;23.77;;;10.50;;
69998;SDS011;57339;52.156;5.372;2023-11-18T12:01:00;23.67;;;10.63;;
69998;SDS011;57339;52.156;5.372;2023-11-18T12:03:42;22.95;;;10.27;;
69998;SDS011;57339;52.156;5.372;2023-11-18T12:06:11;23.80;;;9.73;;
69998;SDS011;57339;52.156;5.372;2023-11-18T12:08:42;26.40;;;10.70;;
69998;SDS011;57339;52.156;5.372;2023-11-18T12:11:10;21.30;;;9.60;;
69998;SDS011;57339;52.156;5.372;2023-11-18T12:13:38;24.70;;;10.00;;
69998;SDS011;57339;52.156;5.372;2023-11-18T12:16:06;22.92;;;9.45;;
69998;SDS011;57339;52.156;5.372;2023-11-18T12:18:33;22.30;;;9.02;;
69998;SDS011;57339;52.156;5.372;2023-11-18T12:21:00;18.17;;;8.40;;
69998;SDS011;57339;52.156;5.372;2023-11-18T12:23:27;21.50;;;9.27;;
69998;SDS011;57339;52.156;5.372;2023-11-18T12:25:55;18.15;;;7.53;;
69998;SDS011;57339;52.156;5.372;2023-11-18T12:30:56;24.23;;;8.25;;
69998;SDS011;57339;52.156;5.372;2023-11-18T12:33:24;18.47;;;7.87;;
69998;SDS011;57339;52.156;5.372;2023-11-18T12:36:09;19.92;;;8.30;;
69998;SDS011;57339;52.156;5.372;2023-11-18T12:39:19;20.63;;;7.57;;
69998;SDS011;57339;52.156;5.372;2023-11-18T12:42:09;18.00;;;7.38;;
69998;SDS011;57339;52.156;5.372;2023-11-18T12:44:58;17.60;;;7.22;;
69998;SDS011;57339;52.156;5.372;2023-11-18T12:47:55;17.43;;;7.13;;
69998;SDS011;57339;52.156;5.372;2023-11-18T12:50:22;14.45;;;6.90;;
69998;SDS011;57339;52.156;5.372;2023-11-18T12:52:51;18.33;;;7.15;;
69998;SDS011;57339;52.156;5.372;2023-11-18T12:55:19;17.98;;;6.85;;
69998;SDS011;57339;52.156;5.372;2023-11-18T12:57:47;15.55;;;6.25;;
69998;SDS011;57339;52.156;5.372;2023-11-18T13:00:17;18.73;;;6.93;;
69998;SDS011;57339;52.156;5.372;2023-11-18T13:02:46;22.55;;;7.20;;
69998;SDS011;57339;52.156;5.372;2023-11-18T13:05:14;16.92;;;6.22;;
69998;SDS011;57339;52.156;5.372;2023-11-18T13:07:41;19.60;;;7.03;;
69998;SDS011;57339;52.156;5.372;2023-11-18T13:10:08;15.40;;;6.95;;
69998;SDS011;57339;52.156;5.372;2023-11-18T13:12:35;14.93;;;6.33;;
69998;SDS011;57339;52.156;5.372;2023-11-18T13:15:02;14.93;;;6.05;;
69998;SDS011;57339;52.156;5.372;2023-11-18T13:17:29;14.60;;;5.97;;
69998;SDS011;57339;52.156;5.372;2023-11-18T13:19:56;14.23;;;5.90;;
69998;SDS011;57339;52.156;5.372;2023-11-18T13:22:23;17.27;;;6.03;;
69998;SDS011;57339;52.156;5.372;2023-11-18T13:25:08;15.73;;;5.90;;
69998;SDS011;57339;52.156;5.372;2023-11-18T13:27:35;12.27;;;5.28;;
69998;SDS011;57339;52.156;5.372;2023-11-18T13:30:02;14.25;;;6.57;;
69998;SDS011;57339;52.156;5.372;2023-11-18T13:32:30;16.35;;;5.80;;
69998;SDS011;57339;52.156;5.372;2023-11-18T13:34:57;15.15;;;5.55;;
69998;SDS011;57339;52.156;5.372;2023-11-18T13:37:24;14.20;;;5.37;;
69998;SDS011;57339;52.156;5.372;2023-11-18T13:39:54;15.52;;;6.00;;
69998;SDS011;57339;52.156;5.372;2023-11-18T13:42:25;16.45;;;5.70;;
69998;SDS011;57339;52.156;5.372;2023-11-18T13:44:53;14.95;;;5.50;;
69998;SDS011;57339;52.156;5.372;2023-11-18T13:47:26;12.70;;;5.38;;
69998;SDS011;57339;52.156;5.372;2023-11-18T13:49:54;13.90;;;5.27;;
69998;SDS011;57339;52.156;5.372;2023-11-18T13:52:21;14.20;;;5.70;;
69998;SDS011;57339;52.156;5.372;2023-11-18T13:54:48;12.55;;;5.13;;
69998;SDS011;57339;52.156;5.372;2023-11-18T13:57:18;12.52;;;5.00;;
69998;SDS011;57339;52.156;5.372;2023-11-18T13:59:46;11.18;;;4.65;;
69998;SDS011;57339;52.156;5.372;2023-11-18T14:02:13;13.33;;;4.90;;
69998;SDS011;57339;52.156;5.372;2023-11-18T14:04:40;12.73;;;4.82;;
69998;SDS011;57339;52.156;5.372;2023-11-18T14:07:07;11.27;;;4.40;;
69998;SDS011;57339;52.156;5.372;2023-11-18T14:09:48;10.40;;;4.57;;
69998;SDS011;57339;52.156;5.372;2023-11-18T14:12:16;11.70;;;4.10;;
69998;SDS011;57339;52.156;5.372;2023-11-18T14:14:43;9.00;;;3.60;;
69998;SDS011;57339;52.156;5.372;2023-11-18T14:17:10;11.68;;;3.83;;
69998;SDS011;57339;52.156;5.372;2023-11-18T14:19:37;10.95;;;4.40;;
69998;SDS011;57339;52.156;5.372;2023-11-18T14:22:04;9.77;;;3.80;;
69998;SDS011;57339;52.156;5.372;2023-11-18T14:24:32;10.38;;;4.03;;
69998;SDS011;57339;52.156;5.372;2023-11-18T14:27:00;10.77;;;4.20;;
69998;SDS011;57339;52.156;5.372;2023-11-18T14:29:27;11.13;;;3.97;;
69998;SDS011;57339;52.156;5.372;2023-11-18T14:31:55;9.82;;;3.85;;
69998;SDS011;57339;52.156;5.372;2023-11-18T14:34:22;13.60;;;4.30;;